createdAt,value
2018-06-20T00:01:43.506Z,3.40
2018-06-20T00:04:47.825Z,3.57
2018-06-20T00:07:52.242Z,3.47
2018-06-20T00:10:56.508Z,3.20
2018-06-20T00:14:00.868Z,3.60
2018-06-20T00:17:05.260Z,3.77
2018-06-20T00:20:09.578Z,3.60
2018-06-20T00:23:13.964Z,3.67
2018-06-20T00:26:18.363Z,4.03
2018-06-20T00:29:22.691Z,3.20
2018-06-20T00:32:27.013Z,3.50
2018-06-20T00:35:31.361Z,3.63
2018-06-20T00:38:35.748Z,3.40
2018-06-20T00:41:40.095Z,3.20
2018-06-20T00:44:44.365Z,3.50
2018-06-20T00:47:48.477Z,3.60
2018-06-20T00:50:52.780Z,3.40
2018-06-20T00:53:57.137Z,3.93
2018-06-20T00:57:01.534Z,3.37
2018-06-20T01:00:05.883Z,4.07
2018-06-20T01:03:10.148Z,3.60
2018-06-20T01:06:14.691Z,3.50
2018-06-20T01:09:19.019Z,4.07
2018-06-20T01:12:23.344Z,3.90
2018-06-20T01:15:27.655Z,3.50
2018-06-20T01:18:32.373Z,3.77
2018-06-20T01:21:36.728Z,4.23
2018-06-20T01:24:41.048Z,3.80
2018-06-20T01:27:45.366Z,3.80
2018-06-20T01:30:50.964Z,3.97
2018-06-20T01:33:55.301Z,4.43
2018-06-20T01:36:59.700Z,4.37
2018-06-20T01:40:04.972Z,4.33
2018-06-20T01:43:09.422Z,5.00
2018-06-20T01:46:13.739Z,4.50
2018-06-20T01:49:18.081Z,4.47
2018-06-20T01:52:22.693Z,5.03
2018-06-20T01:55:27.285Z,4.73
2018-06-20T01:58:31.604Z,4.33
2018-06-20T02:01:36.089Z,4.30
2018-06-20T02:04:40.444Z,5.07
2018-06-20T02:07:44.762Z,4.33
2018-06-20T02:10:49.093Z,4.50
2018-06-20T02:13:53.420Z,4.83
2018-06-20T02:16:57.715Z,4.87
2018-06-20T02:20:02.129Z,5.57
2018-06-20T02:23:06.597Z,4.77
2018-06-20T02:26:11.701Z,5.23
2018-06-20T02:29:16.046Z,5.10
2018-06-20T02:32:20.360Z,5.23
2018-06-20T02:35:24.484Z,4.90
2018-06-20T02:38:28.861Z,5.37
2018-06-20T02:41:33.245Z,5.60
2018-06-20T02:44:37.692Z,5.87
2018-06-20T02:47:43.054Z,6.17
2018-06-20T02:50:47.454Z,5.77
2018-06-20T02:53:51.835Z,6.60
2018-06-20T02:56:56.117Z,7.03
2018-06-20T03:00:00.722Z,6.37
2018-06-20T03:03:05.227Z,6.23
2018-06-20T03:06:09.488Z,6.40
2018-06-20T03:09:20.994Z,5.80
2018-06-20T03:12:25.289Z,6.33
2018-06-20T03:15:29.692Z,6.40
2018-06-20T03:18:34.037Z,6.07
2018-06-20T03:21:38.595Z,6.30
2018-06-20T03:24:43.006Z,5.57
2018-06-20T03:27:47.292Z,5.43
2018-06-20T03:30:51.569Z,6.23
2018-06-20T03:33:55.891Z,5.87
2018-06-20T03:37:00.156Z,6.93
2018-06-20T03:40:04.513Z,6.50
2018-06-20T03:43:08.772Z,5.43
2018-06-20T03:46:13.146Z,5.67
2018-06-20T03:49:17.446Z,6.30
2018-06-20T03:52:21.764Z,5.67
2018-06-20T03:55:26.111Z,5.57
2018-06-20T03:58:30.404Z,5.53
2018-06-20T04:01:34.725Z,6.33
2018-06-20T04:04:39.189Z,6.17
2018-06-20T04:07:43.500Z,6.77
2018-06-20T04:10:47.901Z,6.47
2018-06-20T04:13:52.205Z,6.43
2018-06-20T04:16:56.554Z,6.03
2018-06-20T04:20:00.858Z,5.90
2018-06-20T04:23:05.142Z,5.83
2018-06-20T04:26:10.730Z,5.63
2018-06-20T04:29:15.088Z,6.17
2018-06-20T04:32:19.463Z,6.37
2018-06-20T04:35:23.794Z,5.70
2018-06-20T04:38:28.402Z,5.77
2018-06-20T04:41:32.776Z,6.10
2018-06-20T04:44:37.124Z,6.10
2018-06-20T04:47:41.519Z,5.63
2018-06-20T04:50:46.132Z,5.20
2018-06-20T04:53:50.560Z,5.37
2018-06-20T04:56:55.211Z,5.70
2018-06-20T04:59:59.527Z,5.70
2018-06-20T05:03:03.862Z,6.10
2018-06-20T05:06:08.215Z,5.93
2018-06-20T05:09:18.595Z,5.57
2018-06-20T05:12:22.978Z,6.10
2018-06-20T05:15:27.276Z,6.20
2018-06-20T05:18:31.615Z,6.63
2018-06-20T05:21:36.246Z,6.27
2018-06-20T05:24:40.788Z,6.10
2018-06-20T05:27:45.101Z,6.43
2018-06-20T05:30:51.033Z,6.87
2018-06-20T05:33:55.300Z,6.63
2018-06-20T05:36:59.592Z,7.67
2018-06-20T05:40:03.871Z,7.70
2018-06-20T05:43:08.249Z,8.20
2018-06-20T05:46:12.545Z,8.50
2018-06-20T05:49:16.836Z,8.27
2018-06-20T05:52:21.206Z,8.10
2018-06-20T05:55:25.578Z,9.23
2018-06-20T05:58:29.868Z,9.27
2018-06-20T06:01:34.176Z,8.53
2018-06-20T06:04:38.673Z,9.03
2018-06-20T06:07:43.082Z,8.83
2018-06-20T06:10:47.412Z,10.07
2018-06-20T06:13:52.450Z,9.80
2018-06-20T06:16:56.999Z,10.23
2018-06-20T06:20:01.275Z,10.37
2018-06-20T06:23:05.814Z,10.10
2018-06-20T06:26:10.104Z,13.13
2018-06-20T06:29:17.257Z,11.70
2018-06-20T06:32:21.564Z,11.10
2018-06-20T06:35:25.854Z,12.53
2018-06-20T06:38:30.176Z,12.03
2018-06-20T06:41:34.514Z,12.03
2018-06-20T06:44:38.801Z,13.60
2018-06-20T06:47:43.184Z,12.93
2018-06-20T06:50:47.505Z,13.40
2018-06-20T06:53:51.802Z,12.50
2018-06-20T06:56:56.119Z,13.10
2018-06-20T07:00:00.269Z,14.30
2018-06-20T07:03:04.878Z,13.77
2018-06-20T07:06:09.241Z,13.77
2018-06-20T07:09:13.657Z,15.20
2018-06-20T07:12:17.898Z,15.50
2018-06-20T07:15:22.308Z,14.10
2018-06-20T07:18:26.570Z,15.50
2018-06-20T07:21:30.928Z,15.57
2018-06-20T07:24:35.247Z,16.03
2018-06-20T07:27:39.582Z,16.03
2018-06-20T07:30:43.868Z,13.30
2018-06-20T07:33:48.245Z,16.07
2018-06-20T07:36:52.593Z,15.17
2018-06-20T07:39:56.928Z,17.17
2018-06-20T07:43:01.234Z,16.43
2018-06-20T07:46:05.556Z,16.03
2018-06-20T07:49:09.913Z,16.40
2018-06-20T07:52:14.363Z,16.70
2018-06-20T07:55:18.712Z,14.77
2018-06-20T07:58:28.363Z,16.83
2018-06-20T08:01:55.173Z,16.10
2018-06-20T08:06:03.661Z,14.37
2018-06-20T08:09:13.693Z,15.43
2018-06-20T08:12:23.354Z,15.00
2018-06-20T08:15:32.827Z,14.77
2018-06-20T08:18:42.563Z,16.60
2018-06-20T08:21:47.045Z,15.63
2018-06-20T08:25:03.378Z,14.87
2018-06-20T08:28:07.634Z,15.27
2018-06-20T08:31:12.052Z,16.40
2018-06-20T08:34:16.647Z,15.80
2018-06-20T08:37:20.943Z,14.97
2018-06-20T08:40:25.273Z,15.03
2018-06-20T08:43:29.578Z,14.73
2018-06-20T08:46:33.882Z,14.33
2018-06-20T08:49:38.237Z,14.87
2018-06-20T08:52:42.532Z,14.20
2018-06-20T08:55:46.899Z,14.83
2018-06-20T08:58:51.258Z,14.73
2018-06-20T09:01:55.583Z,14.30
2018-06-20T09:05:05.056Z,14.00
2018-06-20T09:08:14.601Z,14.33
2018-06-20T09:11:24.265Z,12.43
2018-06-20T09:14:28.659Z,14.10
2018-06-20T09:17:38.334Z,13.60
2018-06-20T09:20:42.692Z,13.83
2018-06-20T09:23:47.012Z,13.87
2018-06-20T09:26:51.079Z,13.20
2018-06-20T09:29:55.401Z,13.30
2018-06-20T09:32:59.689Z,13.13
2018-06-20T09:36:03.985Z,12.77
2018-06-20T09:39:08.707Z,13.83
2018-06-20T09:42:12.989Z,11.77
2018-06-20T09:45:17.303Z,12.67
2018-06-20T09:48:21.684Z,11.60
2018-06-20T09:51:25.978Z,11.87
2018-06-20T09:54:30.240Z,12.57
2018-06-20T09:57:34.586Z,11.10
2018-06-20T10:00:44.204Z,11.13
2018-06-20T10:03:53.893Z,10.07
2018-06-20T10:07:03.490Z,9.93
2018-06-20T10:10:13.185Z,10.80
2018-06-20T10:13:18.748Z,10.80
2018-06-20T10:16:23.079Z,10.30
2018-06-20T10:19:27.470Z,9.70
2018-06-20T10:22:31.740Z,10.50
2018-06-20T10:25:36.060Z,10.80
2018-06-20T10:28:40.393Z,11.47
2018-06-20T10:31:44.873Z,11.10
2018-06-20T10:34:49.096Z,10.07
2018-06-20T10:37:53.417Z,8.37
2018-06-20T10:40:57.737Z,7.60
2018-06-20T10:44:05.853Z,8.73
2018-06-20T10:47:15.350Z,9.07
2018-06-20T10:50:19.726Z,8.03
2018-06-20T10:53:24.082Z,9.23
2018-06-20T10:56:33.595Z,8.33
2018-06-20T10:59:43.152Z,7.73
2018-06-20T11:02:52.758Z,8.87
2018-06-20T11:06:02.257Z,8.13
2018-06-20T11:09:13.703Z,9.23
2018-06-20T11:12:23.391Z,9.63
2018-06-20T11:15:27.685Z,8.73
2018-06-20T11:18:33.523Z,9.00
2018-06-20T11:21:37.769Z,9.30
2018-06-20T11:24:42.099Z,9.67
2018-06-20T11:27:46.464Z,11.07
2018-06-20T11:30:50.809Z,10.30
2018-06-20T11:33:55.118Z,11.40
2018-06-20T11:36:59.432Z,10.53
2018-06-20T11:40:03.831Z,10.67
2018-06-20T11:43:08.173Z,9.57
2018-06-20T11:46:17.742Z,12.07
2018-06-20T11:49:22.205Z,11.90
2018-06-20T11:52:31.785Z,9.63
2018-06-20T11:55:44.789Z,9.37
2018-06-20T11:58:54.325Z,9.73
2018-06-20T12:02:03.844Z,7.53
2018-06-20T12:05:13.584Z,8.03
2018-06-20T12:08:23.231Z,8.57
2018-06-20T12:11:32.885Z,8.90
2018-06-20T12:14:42.465Z,8.67
2018-06-20T12:17:52.027Z,7.03
2018-06-20T12:21:01.604Z,7.93
2018-06-20T12:24:11.167Z,8.23
2018-06-20T12:27:20.697Z,6.97
2018-06-20T12:30:30.196Z,8.20
2018-06-20T12:33:39.756Z,7.97
2018-06-20T12:36:49.229Z,8.67
2018-06-20T12:39:58.833Z,6.97
2018-06-20T12:43:08.438Z,7.87
2018-06-20T12:46:24.961Z,6.57
2018-06-20T12:49:32.657Z,7.20
2018-06-20T12:52:37.711Z,7.57
2018-06-20T12:55:41.954Z,7.70
2018-06-20T12:58:46.425Z,6.83
2018-06-20T13:01:50.709Z,6.77
2018-06-20T13:04:55.088Z,6.00
2018-06-20T13:07:59.378Z,6.23
2018-06-20T13:11:03.726Z,6.30
2018-06-20T13:14:08.249Z,7.30
2018-06-20T13:17:12.543Z,7.57
2018-06-20T13:20:16.905Z,6.33
2018-06-20T13:23:21.123Z,6.50
2018-06-20T13:26:25.840Z,6.80
2018-06-20T13:29:30.259Z,7.60
2018-06-20T13:32:39.859Z,8.37
2018-06-20T13:35:49.552Z,7.17
2018-06-20T13:38:59.109Z,9.07
2018-06-20T13:42:05.443Z,9.87
2018-06-20T13:45:14.949Z,8.60
2018-06-20T13:48:24.453Z,9.60
2018-06-20T13:51:28.753Z,10.03
2018-06-20T13:54:33.041Z,10.97
2018-06-20T13:57:37.327Z,11.13
2018-06-20T14:00:41.702Z,14.93
2018-06-20T14:03:46.006Z,16.47
2018-06-20T14:06:50.342Z,15.90
2018-06-20T14:09:54.661Z,15.63
2018-06-20T14:12:58.955Z,14.33
2018-06-20T14:16:03.262Z,17.33
2018-06-20T14:19:07.593Z,16.17
2018-06-20T14:22:11.901Z,14.87
2018-06-20T14:25:16.004Z,15.57
2018-06-20T14:28:20.292Z,16.10
2018-06-20T14:31:29.916Z,14.97
2018-06-20T14:34:39.503Z,15.40
2018-06-20T14:37:49.105Z,13.40
2018-06-20T14:40:58.638Z,13.70
2018-06-20T14:44:06.585Z,13.13
2018-06-20T14:47:10.929Z,16.03
2018-06-20T14:50:15.257Z,15.67
2018-06-20T14:53:19.561Z,15.37
2018-06-20T14:56:23.917Z,13.10
2018-06-20T14:59:28.213Z,11.00
2018-06-20T15:02:32.533Z,10.90
2018-06-20T15:05:36.829Z,10.40
2018-06-20T15:08:41.138Z,9.40
2018-06-20T15:11:45.495Z,9.00
2018-06-20T15:14:49.796Z,7.87
2018-06-20T15:17:54.367Z,8.00
2018-06-20T15:20:58.741Z,7.30
2018-06-20T15:24:03.079Z,7.87
2018-06-20T15:27:12.667Z,6.53
2018-06-20T15:30:22.178Z,7.17
2018-06-20T15:33:31.951Z,8.30
2018-06-20T15:36:41.581Z,7.87
2018-06-20T15:39:46.033Z,8.67
2018-06-20T15:42:50.343Z,9.30
2018-06-20T15:45:54.776Z,9.90
2018-06-20T15:48:59.066Z,10.87
2018-06-20T15:52:03.466Z,10.87
2018-06-20T15:55:07.802Z,11.40
2018-06-20T15:58:12.252Z,12.30
2018-06-20T16:01:16.549Z,10.40
2018-06-20T16:04:20.818Z,9.97
2018-06-20T16:07:25.108Z,10.30
2018-06-20T16:10:29.485Z,9.63
2018-06-20T16:13:33.787Z,9.57
2018-06-20T16:16:38.111Z,10.33
2018-06-20T16:19:47.635Z,13.27
2018-06-20T16:22:57.363Z,14.50
2018-06-20T16:26:06.943Z,14.07
2018-06-20T16:29:16.524Z,15.40
2018-06-20T16:32:20.828Z,15.23
2018-06-20T16:35:25.260Z,16.27
2018-06-20T16:38:29.575Z,14.57
2018-06-20T16:41:33.888Z,12.37
2018-06-20T16:44:38.165Z,9.70
2018-06-20T16:47:42.499Z,9.67
2018-06-20T16:50:46.797Z,8.97
2018-06-20T16:53:51.096Z,8.73
2018-06-20T16:56:55.385Z,9.20
2018-06-20T16:59:59.702Z,9.77
2018-06-20T17:03:03.998Z,9.23
2018-06-20T17:06:08.337Z,8.43
2018-06-20T17:09:12.630Z,7.87
2018-06-20T17:12:22.074Z,8.70
2018-06-20T17:15:31.718Z,8.70
2018-06-20T17:18:41.336Z,8.83
2018-06-20T17:22:55.026Z,7.47
2018-06-20T17:25:59.413Z,6.57
2018-06-20T17:29:03.690Z,6.70
2018-06-20T17:32:08.011Z,6.47
2018-06-20T17:35:12.313Z,7.07
2018-06-20T17:38:16.629Z,5.90
2018-06-20T17:41:20.912Z,5.30
2018-06-20T17:44:25.260Z,5.70
2018-06-20T17:47:29.497Z,5.73
2018-06-20T17:50:33.873Z,5.97
2018-06-20T17:53:38.118Z,6.17
2018-06-20T17:56:42.410Z,6.00
2018-06-20T17:59:46.683Z,6.10
2018-06-20T18:02:51.043Z,5.50
2018-06-20T18:06:00.508Z,6.03
2018-06-20T18:09:12.216Z,5.27
2018-06-20T18:12:22.054Z,5.83
2018-06-20T18:15:31.669Z,5.87
2018-06-20T18:18:35.959Z,5.87
2018-06-20T18:21:40.322Z,5.90
2018-06-20T18:24:44.644Z,5.80
2018-06-20T18:27:49.094Z,6.00
2018-06-20T18:30:53.449Z,5.17
2018-06-20T18:33:57.760Z,5.33
2018-06-20T18:37:02.055Z,6.57
2018-06-20T18:40:07.934Z,6.37
2018-06-20T18:43:12.197Z,5.73
2018-06-20T18:46:16.513Z,5.77
2018-06-20T18:49:20.852Z,5.50
2018-06-20T18:52:25.152Z,5.50
2018-06-20T18:55:29.551Z,5.67
2018-06-20T18:58:39.076Z,4.80
2018-06-20T19:01:48.767Z,5.53
2018-06-20T19:04:58.442Z,5.53
2018-06-20T19:08:08.098Z,5.77
2018-06-20T19:11:12.473Z,5.57
2018-06-20T19:14:16.886Z,5.50
2018-06-20T19:17:21.230Z,5.30
2018-06-20T19:20:25.618Z,5.40
2018-06-20T19:23:30.043Z,5.00
2018-06-20T19:26:34.383Z,5.13
2018-06-20T19:29:38.655Z,5.87
2018-06-20T19:32:43.100Z,6.17
2018-06-20T19:35:47.411Z,5.37
2018-06-20T19:38:52.233Z,5.13
2018-06-20T19:41:56.610Z,6.17
2018-06-20T19:45:01.048Z,6.27
2018-06-20T19:48:05.467Z,6.13
2018-06-20T19:51:10.118Z,6.00
2018-06-20T19:54:15.147Z,6.13
2018-06-20T19:57:19.579Z,6.50
2018-06-20T20:00:23.914Z,6.90
2018-06-20T20:03:28.223Z,7.27
2018-06-20T20:06:32.676Z,6.60
2018-06-20T20:09:36.944Z,7.53
2018-06-20T20:12:41.288Z,6.87
2018-06-20T20:15:45.579Z,6.73
2018-06-20T20:18:50.426Z,6.87
2018-06-20T20:21:54.741Z,6.33
2018-06-20T20:24:59.063Z,6.73
2018-06-20T20:28:03.108Z,5.83
2018-06-20T20:31:07.804Z,5.47
2018-06-20T20:34:12.216Z,6.77
2018-06-20T20:37:16.433Z,7.13
2018-06-20T20:40:20.718Z,6.50
2018-06-20T20:43:25.058Z,6.57
2018-06-20T20:46:29.341Z,7.37
2018-06-20T20:49:33.726Z,6.87
2018-06-20T20:52:37.986Z,8.00
2018-06-20T20:55:42.353Z,6.70
2018-06-20T20:58:46.675Z,7.43
2018-06-20T21:01:51.059Z,8.13
2018-06-20T21:04:55.334Z,8.63
2018-06-20T21:07:59.639Z,7.60
2018-06-20T21:11:04.080Z,8.63
2018-06-20T21:14:08.388Z,7.53
2018-06-20T21:17:12.663Z,9.17
2018-06-20T21:20:16.988Z,7.83
2018-06-20T21:23:21.256Z,9.23
2018-06-20T21:26:25.582Z,8.00
2018-06-20T21:29:29.882Z,8.60
2018-06-20T21:32:34.237Z,9.97
2018-06-20T21:35:38.513Z,9.50
2018-06-20T21:38:42.891Z,9.30
2018-06-20T21:41:47.166Z,9.10
2018-06-20T21:44:51.495Z,9.50
2018-06-20T21:47:55.757Z,10.27
2018-06-20T21:51:00.082Z,10.03
2018-06-20T21:54:04.423Z,10.53
2018-06-20T21:57:08.825Z,9.30
2018-06-20T22:00:13.421Z,9.03
2018-06-20T22:03:17.797Z,10.70
2018-06-20T22:06:22.126Z,9.67
2018-06-20T22:09:26.489Z,10.27
2018-06-20T22:12:30.825Z,10.83
2018-06-20T22:15:35.335Z,9.57
2018-06-20T22:18:39.686Z,10.17
2018-06-20T22:21:43.981Z,9.67
2018-06-20T22:24:48.361Z,9.60
2018-06-20T22:27:52.625Z,9.53
2018-06-20T22:30:56.992Z,9.17
2018-06-20T22:34:01.307Z,10.37
2018-06-20T22:37:05.636Z,9.63
2018-06-20T22:40:10.168Z,10.07
2018-06-20T22:43:14.468Z,9.67
2018-06-20T22:46:18.775Z,10.33
2018-06-20T22:49:22.793Z,10.17
2018-06-20T22:52:27.121Z,11.67
2018-06-20T22:55:31.566Z,12.40
2018-06-20T22:58:35.890Z,8.97
2018-06-20T23:01:40.168Z,11.17
2018-06-20T23:04:44.484Z,10.27
2018-06-20T23:07:48.825Z,10.00
2018-06-20T23:10:53.056Z,9.67
2018-06-20T23:13:57.429Z,9.20
2018-06-20T23:17:01.730Z,10.73
2018-06-20T23:20:06.005Z,10.23
2018-06-20T23:23:10.451Z,8.80
2018-06-20T23:26:14.730Z,10.30
2018-06-20T23:29:19.058Z,8.00
2018-06-20T23:32:23.373Z,8.63
2018-06-20T23:35:27.692Z,9.50
2018-06-20T23:38:31.928Z,8.07
2018-06-20T23:41:36.397Z,8.00
2018-06-20T23:44:40.669Z,8.50
2018-06-20T23:47:44.941Z,9.50
2018-06-20T23:50:49.253Z,7.83
2018-06-20T23:53:53.612Z,8.47
2018-06-20T23:56:57.868Z,7.03
